Time;durP1;ratioP1;P1;durP2;ratioP2;P2;SDS_P1;SDS_P2;PMS_P1;PMS_P2;Temp;Humidity;BMP_temperature;BMP_pressure;BME280_temperature;BME280_humidity;BME280_pressure;Samples;Min_cycle;Max_cycle;Signal;HPM_P1;HPM_P2
2021/03/18 00:01:13;;;;;;;2.08;1.40;;;18.10;48.60;;;;;;4985612;28;20420;-62
2021/03/18 00:03:39;;;;;;;3.05;1.77;;;18.20;48.60;;;;;;4985985;28;20049;-58
2021/03/18 00:06:05;;;;;;;1.73;1.20;;;18.20;48.50;;;;;;4986631;28;20061;-61
2021/03/18 00:08:31;;;;;;;3.03;1.42;;;18.20;48.50;;;;;;5000678;28;20133;-60
2021/03/18 00:10:57;;;;;;;2.78;1.75;;;18.20;48.50;;;;;;4984523;28;20113;-61
2021/03/18 00:13:23;;;;;;;1.75;1.60;;;18.20;48.40;;;;;;4986278;28;20046;-62
2021/03/18 00:15:49;;;;;;;1.65;1.50;;;18.20;48.40;;;;;;4984539;28;20044;-63
2021/03/18 00:18:16;;;;;;;1.75;1.15;;;18.20;48.30;;;;;;4986196;28;20035;-59
2021/03/18 00:20:42;;;;;;;1.90;1.48;;;18.20;48.20;;;;;;4984467;28;20120;-59
2021/03/18 00:23:07;;;;;;;2.00;1.33;;;18.20;48.30;;;;;;4979079;28;20054;-59
2021/03/18 00:25:33;;;;;;;3.08;1.40;;;18.20;48.30;;;;;;4981585;28;20039;-58
2021/03/18 00:27:59;;;;;;;2.33;1.42;;;18.20;48.30;;;;;;4988453;28;20042;-60
2021/03/18 00:30:24;;;;;;;2.13;1.83;;;18.10;48.30;;;;;;4972334;28;20591;-62
2021/03/18 00:32:50;;;;;;;2.53;1.80;;;18.10;48.40;;;;;;4984580;28;20042;-61
2021/03/18 00:35:16;;;;;;;2.30;1.50;;;18.00;48.40;;;;;;4986475;28;20031;-61
2021/03/18 00:37:42;;;;;;;2.10;1.67;;;18.00;48.50;;;;;;4986409;28;20042;-63
2021/03/18 00:40:23;;;;;;;3.08;1.65;;;17.90;48.50;;;;;;4985233;28;20048;-61
2021/03/18 00:43:02;;;;;;;3.05;1.73;;;17.90;48.50;;;;;;4999331;28;20061;-61
2021/03/18 00:45:29;;;;;;;2.20;1.60;;;17.90;48.50;;;;;;4980784;28;20039;-58
2021/03/18 00:47:55;;;;;;;2.78;1.70;;;17.90;48.50;;;;;;4985303;28;20488;-64
2021/03/18 00:50:27;;;;;;;2.72;1.80;;;17.90;48.60;;;;;;4984926;28;20045;-61
2021/03/18 00:52:52;;;;;;;2.97;1.95;;;17.90;48.50;;;;;;4983399;28;20456;-57
2021/03/18 00:55:18;;;;;;;2.35;1.92;;;17.90;48.50;;;;;;4983303;28;20030;-61
2021/03/18 00:57:44;;;;;;;3.03;1.60;;;17.90;48.50;;;;;;4983639;28;20030;-63
2021/03/18 01:00:13;;;;;;;3.65;2.05;;;17.90;48.40;;;;;;4967906;28;20136;-61
2021/03/18 01:02:39;;;;;;;1.67;1.58;;;17.90;48.40;;;;;;4983830;28;20061;-58
2021/03/18 01:05:08;;;;;;;1.60;1.48;;;17.90;48.50;;;;;;4983675;28;20493;-62
2021/03/18 01:07:34;;;;;;;1.70;1.42;;;17.90;48.50;;;;;;4984823;28;20130;-61
2021/03/18 01:09:59;;;;;;;2.42;1.60;;;17.80;48.50;;;;;;5000508;28;20911;-58
2021/03/18 01:12:25;;;;;;;3.42;2.17;;;17.90;48.50;;;;;;4997875;28;20350;-60
2021/03/18 01:14:50;;;;;;;2.20;1.85;;;17.90;48.60;;;;;;4985034;28;20038;-61
2021/03/18 01:17:16;;;;;;;2.45;1.50;;;17.80;48.40;;;;;;4984936;28;20031;-61
2021/03/18 01:19:41;;;;;;;2.58;1.67;;;17.80;48.50;;;;;;4983435;28;20038;-61
2021/03/18 01:22:07;;;;;;;2.58;1.65;;;17.80;48.50;;;;;;4985270;28;20704;-62
2021/03/18 01:24:32;;;;;;;1.92;1.73;;;17.70;48.50;;;;;;4984735;28;20041;-62
2021/03/18 01:26:58;;;;;;;2.67;1.33;;;17.80;48.60;;;;;;4984986;28;20022;-56
2021/03/18 01:29:24;;;;;;;3.33;1.80;;;17.70;48.60;;;;;;4985090;28;20019;-63
2021/03/18 01:31:50;;;;;;;2.95;1.70;;;17.70;48.60;;;;;;4998998;28;20140;-60
2021/03/18 01:34:15;;;;;;;2.25;1.35;;;17.70;48.60;;;;;;4985154;28;20485;-60
2021/03/18 01:36:40;;;;;;;1.58;1.48;;;17.70;48.60;;;;;;4982841;28;20445;-62
2021/03/18 01:39:06;;;;;;;1.48;1.13;;;17.70;48.60;;;;;;4984926;28;20089;-63
2021/03/18 01:41:32;;;;;;;1.80;1.40;;;17.70;48.70;;;;;;4982657;28;20046;-62
2021/03/18 01:43:57;;;;;;;1.38;1.20;;;17.70;48.80;;;;;;4983986;28;20030;-64
2021/03/18 01:46:23;;;;;;;1.58;1.15;;;17.70;48.80;;;;;;4984573;28;20056;-63
2021/03/18 01:48:48;;;;;;;1.27;1.17;;;17.70;48.90;;;;;;4984814;28;20113;-63
2021/03/18 01:51:15;;;;;;;1.67;1.20;;;17.70;48.90;;;;;;4984746;28;20413;-64
2021/03/18 01:53:41;;;;;;;1.20;1.05;;;17.70;48.90;;;;;;4984849;28;20038;-62
2021/03/18 01:56:06;;;;;;;1.70;1.50;;;17.70;49.00;;;;;;4982703;28;20053;-61
2021/03/18 01:58:32;;;;;;;2.10;1.50;;;17.70;49.00;;;;;;4983071;28;20042;-61
2021/03/18 02:01:00;;;;;;;1.30;1.10;;;17.70;49.00;;;;;;4991695;28;20108;-63
2021/03/18 02:03:25;;;;;;;2.78;1.52;;;17.70;49.00;;;;;;4968600;28;20109;-64
2021/03/18 02:05:51;;;;;;;1.58;1.33;;;17.70;49.00;;;;;;4990517;28;20117;-63
2021/03/18 02:08:16;;;;;;;1.45;1.15;;;17.60;49.00;;;;;;5005718;28;20057;-61
2021/03/18 02:10:42;;;;;;;2.88;1.35;;;17.70;49.10;;;;;;4990759;28;20038;-61
2021/03/18 02:13:09;;;;;;;2.97;1.40;;;17.60;49.20;;;;;;4990215;28;20040;-63
2021/03/18 02:15:40;;;;;;;2.33;1.02;;;17.60;49.20;;;;;;4990927;28;20035;-61
2021/03/18 02:18:28;;;;;;;1.30;1.13;;;17.60;49.30;;;;;;4998475;28;20109;-63
2021/03/18 02:21:12;;;;;;;1.58;1.00;;;17.60;49.30;;;;;;4974722;28;20114;-64
2021/03/18 02:24:02;;;;;;;1.30;1.20;;;17.60;49.40;;;;;;4991081;28;20470;-61
2021/03/18 02:26:33;;;;;;;1.45;0.98;;;17.50;49.40;;;;;;4987767;28;20026;-62
2021/03/18 02:29:36;;;;;;;1.08;0.82;;;17.50;49.50;;;;;;4991234;28;20030;-58
2021/03/18 02:32:17;;;;;;;1.63;1.17;;;17.50;49.50;;;;;;4967605;28;20038;-60
2021/03/18 02:35:21;;;;;;;1.13;0.90;;;17.50;49.40;;;;;;4999140;28;20130;-61
2021/03/18 02:38:06;;;;;;;1.38;0.98;;;17.50;49.30;;;;;;4980286;28;20124;-61
2021/03/18 02:40:36;;;;;;;1.27;1.17;;;17.60;49.30;;;;;;4997569;28;20058;-64
2021/03/18 02:43:04;;;;;;;1.83;1.48;;;17.60;49.20;;;;;;4990364;28;20117;-61
2021/03/18 02:45:33;;;;;;;1.45;1.20;;;17.60;49.20;;;;;;4973931;28;20023;-63
2021/03/18 02:47:59;;;;;;;1.40;1.17;;;17.60;49.10;;;;;;4989026;28;20126;-62
2021/03/18 02:50:26;;;;;;;1.65;1.10;;;17.60;49.10;;;;;;5005314;28;20108;-64
2021/03/18 02:52:52;;;;;;;2.22;1.20;;;17.60;49.00;;;;;;5005095;28;20820;-61
2021/03/18 02:55:17;;;;;;;2.90;1.48;;;17.60;49.00;;;;;;4986462;28;20118;-63
2021/03/18 02:57:43;;;;;;;2.00;1.30;;;17.60;48.90;;;;;;4989447;28;20121;-62
2021/03/18 03:00:10;;;;;;;2.55;1.10;;;17.70;48.90;;;;;;5005552;28;20110;-62
2021/03/18 03:02:35;;;;;;;1.35;1.13;;;17.60;48.80;;;;;;4989526;28;20065;-63
2021/03/18 03:05:01;;;;;;;1.58;1.20;;;17.70;48.80;;;;;;4990323;28;20089;-61
2021/03/18 03:07:27;;;;;;;1.52;1.33;;;17.70;48.80;;;;;;4972907;28;20027;-62
2021/03/18 03:09:53;;;;;;;2.22;1.20;;;17.60;48.70;;;;;;5005694;28;20038;-62
2021/03/18 03:12:23;;;;;;;1.42;1.20;;;17.60;48.70;;;;;;4988623;28;20080;-60
2021/03/18 03:14:48;;;;;;;1.67;1.15;;;17.60;48.70;;;;;;4987809;28;20037;-62
2021/03/18 03:17:16;;;;;;;1.73;1.48;;;17.60;48.80;;;;;;4952664;28;20026;-62
2021/03/18 03:19:42;;;;;;;2.53;1.33;;;17.60;48.70;;;;;;4985927;28;20088;-62
2021/03/18 03:22:07;;;;;;;1.23;1.13;;;17.60;48.70;;;;;;5001391;28;20030;-63
2021/03/18 03:24:33;;;;;;;1.00;0.90;;;17.60;48.70;;;;;;4985781;28;20034;-63
2021/03/18 03:26:59;;;;;;;2.85;1.20;;;17.60;48.60;;;;;;4969709;28;20510;-56
2021/03/18 03:29:24;;;;;;;4.32;1.77;;;17.60;48.50;;;;;;4954888;28;20054;-62
2021/03/18 03:31:50;;;;;;;1.63;1.23;;;17.70;48.40;;;;;;4967334;28;20031;-60
2021/03/18 03:34:16;;;;;;;2.33;1.38;;;17.70;48.40;;;;;;4975063;28;20030;-60
2021/03/18 03:36:41;;;;;;;0.95;0.82;;;17.70;48.30;;;;;;4977855;28;20532;-57
2021/03/18 03:39:07;;;;;;;1.45;1.05;;;17.70;48.30;;;;;;4974019;28;20431;-63
2021/03/18 03:41:32;;;;;;;1.38;1.20;;;17.70;48.30;;;;;;4969980;28;20047;-61
2021/03/18 03:43:58;;;;;;;3.17;1.60;;;17.70;48.20;;;;;;4970966;28;20043;-63
2021/03/18 03:46:24;;;;;;;1.00;0.90;;;17.70;48.10;;;;;;4971271;28;20046;-63
2021/03/18 03:48:49;;;;;;;1.88;1.23;;;17.70;48.00;;;;;;4971834;28;20031;-60
2021/03/18 03:51:15;;;;;;;2.00;1.10;;;17.80;48.00;;;;;;4974119;28;20584;-63
2021/03/18 03:53:47;;;;;;;1.60;1.35;;;17.70;47.90;;;;;;4985761;28;20038;-59
2021/03/18 03:56:33;;;;;;;1.77;1.17;;;17.80;48.00;;;;;;4965620;28;20049;-63
2021/03/18 03:59:06;;;;;;;2.25;1.10;;;17.80;47.90;;;;;;4962876;28;20042;-60
2021/03/18 04:01:43;;;;;;;2.88;1.23;;;17.70;48.00;;;;;;4986376;28;20046;-62
2021/03/18 04:04:16;;;;;;;1.38;1.23;;;17.70;48.20;;;;;;5000971;28;20045;-60
2021/03/18 04:06:42;;;;;;;1.55;1.02;;;17.60;48.20;;;;;;5000722;28;20049;-61
2021/03/18 04:09:08;;;;;;;1.65;1.10;;;17.60;48.20;;;;;;4968681;28;20576;-61
2021/03/18 04:11:37;;;;;;;2.30;1.35;;;17.60;48.40;;;;;;4967582;28;20053;-61
2021/03/18 04:14:04;;;;;;;3.78;1.20;;;17.60;48.40;;;;;;5001167;28;20041;-61
2021/03/18 04:16:29;;;;;;;1.88;1.10;;;17.60;48.40;;;;;;5000685;28;20520;-60
2021/03/18 04:18:55;;;;;;;1.77;1.10;;;17.50;48.40;;;;;;4968887;28;20125;-60
2021/03/18 04:21:21;;;;;;;1.70;1.30;;;17.50;48.40;;;;;;4968418;28;20085;-60
2021/03/18 04:23:46;;;;;;;2.63;1.10;;;17.50;48.50;;;;;;4968645;28;20042;-62
2021/03/18 04:26:11;;;;;;;1.85;1.00;;;17.50;48.50;;;;;;4983806;28;20034;-63
2021/03/18 04:28:37;;;;;;;2.55;1.27;;;17.50;48.50;;;;;;4984522;28;20066;-61
2021/03/18 04:31:04;;;;;;;1.15;1.05;;;17.50;48.50;;;;;;4968556;28;20113;-63
2021/03/18 04:33:29;;;;;;;2.10;1.38;;;17.50;48.50;;;;;;4984407;28;20031;-59
2021/03/18 04:35:56;;;;;;;1.60;1.08;;;17.50;48.40;;;;;;4968116;28;20143;-60
2021/03/18 04:38:23;;;;;;;2.17;1.23;;;17.50;48.50;;;;;;4984640;28;20034;-61
2021/03/18 04:40:48;;;;;;;1.08;0.95;;;17.50;48.40;;;;;;4968256;28;20579;-60
2021/03/18 04:43:14;;;;;;;1.13;0.90;;;17.50;48.40;;;;;;4984274;28;20034;-62
2021/03/18 04:45:39;;;;;;;1.55;1.30;;;17.50;48.50;;;;;;4984359;28;20039;-61
2021/03/18 04:48:05;;;;;;;2.63;1.17;;;17.50;48.50;;;;;;4984461;28;20153;-62
2021/03/18 04:50:31;;;;;;;2.15;1.30;;;17.50;48.50;;;;;;4986110;28;20100;-63
2021/03/18 04:52:56;;;;;;;2.25;1.05;;;17.50;48.50;;;;;;4999767;28;20497;-62
2021/03/18 04:55:22;;;;;;;1.10;1.00;;;17.50;48.60;;;;;;4975626;28;20049;-64
2021/03/18 04:58:07;;;;;;;2.15;1.23;;;17.50;48.60;;;;;;4967352;28;20125;-63
2021/03/18 05:00:33;;;;;;;1.38;1.10;;;17.50;48.60;;;;;;4984695;28;20590;-62
2021/03/18 05:03:01;;;;;;;1.63;1.00;;;17.40;48.50;;;;;;4967781;28;20041;-64
2021/03/18 05:05:27;;;;;;;1.00;0.90;;;17.50;48.60;;;;;;4968305;28;20040;-62
2021/03/18 05:07:53;;;;;;;1.38;1.08;;;17.50;49.20;;;;;;4984703;28;20480;-61
2021/03/18 05:10:20;;;;;;;1.13;1.02;;;17.50;48.60;;;;;;4967439;28;20077;-62
2021/03/18 05:12:46;;;;;;;1.20;1.10;;;17.50;48.60;;;;;;4983471;28;20421;-60
2021/03/18 05:15:13;;;;;;;1.52;1.20;;;17.50;48.60;;;;;;5000539;28;20030;-63
2021/03/18 05:17:39;;;;;;;1.63;1.00;;;17.50;48.60;;;;;;4999397;28;20030;-62
2021/03/18 05:20:06;;;;;;;1.35;0.90;;;17.50;48.60;;;;;;4976177;28;20042;-64
2021/03/18 05:22:31;;;;;;;1.52;1.10;;;17.50;48.60;;;;;;4985308;28;20061;-62
2021/03/18 05:24:57;;;;;;;2.17;1.42;;;17.50;48.60;;;;;;4983978;28;20437;-61
2021/03/18 05:27:23;;;;;;;1.08;0.98;;;17.50;48.60;;;;;;4982542;28;20053;-63
2021/03/18 05:29:48;;;;;;;2.22;1.00;;;17.50;48.60;;;;;;4985129;28;20030;-64
2021/03/18 05:32:14;;;;;;;1.05;0.95;;;17.50;48.60;;;;;;4983774;28;20031;-64
2021/03/18 05:34:39;;;;;;;1.42;1.10;;;17.50;48.60;;;;;;4970981;28;20034;-65
2021/03/18 05:37:05;;;;;;;1.55;1.35;;;17.50;48.50;;;;;;4985049;28;20053;-65
2021/03/18 05:39:30;;;;;;;1.65;0.95;;;17.50;48.50;;;;;;4985099;28;20408;-63
2021/03/18 05:41:56;;;;;;;1.38;1.23;;;17.50;48.50;;;;;;5000569;28;20469;-63
2021/03/18 05:44:21;;;;;;;5.47;1.08;;;17.50;48.50;;;;;;5000802;28;20030;-65
2021/03/18 05:46:47;;;;;;;2.13;1.42;;;17.50;48.50;;;;;;4983386;28;20038;-64
2021/03/18 05:49:12;;;;;;;1.05;0.95;;;17.50;48.50;;;;;;4967837;28;20105;-65
2021/03/18 05:51:38;;;;;;;1.15;0.93;;;17.50;48.50;;;;;;4985190;28;20615;-63
2021/03/18 05:54:04;;;;;;;1.50;1.40;;;17.50;48.60;;;;;;4973714;28;20031;-63
2021/03/18 05:56:29;;;;;;;2.17;1.05;;;17.50;48.60;;;;;;4983103;28;20045;-63
2021/03/18 05:58:55;;;;;;;2.03;1.02;;;17.50;48.60;;;;;;4975900;28;20042;-65
2021/03/18 06:01:20;;;;;;;1.58;1.20;;;17.50;48.60;;;;;;4955281;28;20035;-61
2021/03/18 06:03:46;;;;;;;3.35;1.27;;;17.50;48.50;;;;;;4975313;28;20038;-61
2021/03/18 06:06:12;;;;;;;1.55;1.20;;;17.50;48.40;;;;;;4975878;28;20446;-62
2021/03/18 06:08:37;;;;;;;2.67;1.13;;;17.50;48.60;;;;;;4974314;28;20493;-61
2021/03/18 06:11:04;;;;;;;3.13;1.52;;;17.60;48.60;;;;;;4973388;28;20039;-63
2021/03/18 06:13:29;;;;;;;4.93;1.70;;;17.50;48.40;;;;;;4970320;28;20122;-63
2021/03/18 06:15:55;;;;;;;3.08;1.70;;;17.60;48.30;;;;;;4965345;28;20485;-60
2021/03/18 06:18:21;;;;;;;5.35;1.92;;;17.60;48.30;;;;;;4963933;28;20039;-64
2021/03/18 06:20:55;;;;;;;5.90;2.10;;;17.60;48.30;;;;;;4971683;28;20461;-60
2021/03/18 06:23:21;;;;;;;4.53;2.00;;;17.60;48.30;;;;;;4974159;28;20464;-64
2021/03/18 06:25:48;;;;;;;2.63;1.70;;;17.50;48.20;;;;;;4966210;28;20035;-64
2021/03/18 06:28:22;;;;;;;4.07;1.88;;;17.50;48.30;;;;;;4972687;28;20039;-63
2021/03/18 06:31:07;;;;;;;4.93;2.22;;;17.50;48.30;;;;;;4976977;28;20039;-64
2021/03/18 06:33:44;;;;;;;2.38;1.73;;;17.50;48.30;;;;;;4984403;28;20034;-63
2021/03/18 06:36:29;;;;;;;3.55;2.10;;;17.50;48.20;;;;;;4983424;28;20045;-61
2021/03/18 06:39:01;;;;;;;2.53;2.07;;;17.50;48.10;;;;;;4983185;28;20054;-59
2021/03/18 06:41:41;;;;;;;2.95;2.03;;;17.50;48.00;;;;;;4986827;28;20056;-62
2021/03/18 06:44:18;;;;;;;4.25;2.50;;;17.60;47.90;;;;;;4977665;28;20405;-65
2021/03/18 06:46:44;;;;;;;2.88;2.58;;;17.60;47.70;;;;;;4979811;28;20035;-64
2021/03/18 06:49:11;;;;;;;2.30;2.05;;;17.60;47.70;;;;;;4977951;28;20543;-65
2021/03/18 06:51:36;;;;;;;2.60;2.00;;;17.60;47.70;;;;;;4986404;28;20886;-59
2021/03/18 06:54:02;;;;;;;2.88;2.22;;;17.70;47.70;;;;;;4988205;28;20042;-64
2021/03/18 06:56:31;;;;;;;5.25;2.35;;;17.60;47.60;;;;;;4986457;28;20053;-65
2021/03/18 06:58:57;;;;;;;3.08;2.20;;;17.60;47.60;;;;;;5002933;28;20390;-65
2021/03/18 07:01:24;;;;;;;2.40;2.17;;;17.60;47.60;;;;;;4987694;28;20049;-65
2021/03/18 07:03:49;;;;;;;3.10;2.25;;;17.60;47.60;;;;;;4970087;28;20456;-63
2021/03/18 07:06:32;;;;;;;3.13;2.45;;;17.60;47.60;;;;;;4988148;28;20084;-62
2021/03/18 07:09:06;;;;;;;3.05;2.75;;;17.60;47.60;;;;;;4987086;28;20074;-64
2021/03/18 07:11:41;;;;;;;2.55;2.22;;;17.60;47.60;;;;;;4981091;28;20049;-63
2021/03/18 07:14:07;;;;;;;2.42;2.22;;;17.60;47.50;;;;;;5002773;28;20405;-65
2021/03/18 07:16:46;;;;;;;3.85;2.72;;;17.60;47.50;;;;;;4985039;28;20046;-65
2021/03/18 07:19:20;;;;;;;13.55;2.90;;;17.60;47.50;;;;;;4987079;28;20046;-65
2021/03/18 07:21:46;;;;;;;4.75;3.55;;;17.60;47.60;;;;;;4987473;28;20052;-65
2021/03/18 07:24:25;;;;;;;4.10;2.80;;;17.60;47.80;;;;;;4986102;28;20030;-64
2021/03/18 07:26:50;;;;;;;6.05;3.13;;;17.60;48.00;;;;;;4986943;28;20535;-64
2021/03/18 07:29:18;;;;;;;7.93;3.67;;;17.60;48.20;;;;;;5002175;28;20035;-64
2021/03/18 07:31:44;;;;;;;5.07;3.65;;;17.60;48.30;;;;;;4987085;28;20048;-64
2021/03/18 07:34:09;;;;;;;7.70;4.10;;;17.60;48.40;;;;;;4986205;28;20109;-63
2021/03/18 07:36:36;;;;;;;7.72;4.13;;;17.50;48.40;;;;;;4986016;28;20871;-63
2021/03/18 07:39:02;;;;;;;7.78;4.32;;;17.50;48.50;;;;;;4987133;28;20042;-62
2021/03/18 07:41:27;;;;;;;6.30;4.10;;;17.50;48.50;;;;;;4987153;28;20078;-63
2021/03/18 07:43:53;;;;;;;9.88;4.00;;;17.50;48.60;;;;;;4985615;28;20108;-64
2021/03/18 07:46:19;;;;;;;8.13;4.13;;;17.50;48.40;;;;;;4985985;28;20026;-63
2021/03/18 07:48:50;;;;;;;9.27;3.78;;;17.50;48.50;;;;;;4987438;28;20476;-64
2021/03/18 07:51:16;;;;;;;5.80;3.75;;;17.50;48.60;;;;;;4979242;28;20115;-63
2021/03/18 07:53:46;;;;;;;9.20;4.32;;;17.50;48.50;;;;;;4984888;28;20394;-64
2021/03/18 07:56:15;;;;;;;6.78;3.70;;;17.50;48.70;;;;;;4971450;28;20042;-63
2021/03/18 07:58:42;;;;;;;6.68;3.75;;;17.50;48.80;;;;;;4986662;28;20085;-64
2021/03/18 08:01:28;;;;;;;5.88;3.08;;;17.50;48.80;;;;;;4987065;28;20112;-65
2021/03/18 08:03:53;;;;;;;4.97;3.45;;;17.40;48.90;;;;;;4986308;28;20038;-62
2021/03/18 08:06:39;;;;;;;8.05;3.60;;;17.40;49.30;;;;;;4985589;28;20039;-64
2021/03/18 08:09:12;;;;;;;5.30;4.00;;;17.30;50.00;;;;;;4986204;28;20085;-65
2021/03/18 08:11:39;;;;;;;5.90;3.47;;;17.30;49.50;;;;;;4969411;28;20456;-66
2021/03/18 08:14:11;;;;;;;5.43;3.40;;;17.30;49.60;;;;;;4986756;28;20026;-64
2021/03/18 08:16:36;;;;;;;5.60;3.80;;;17.20;49.70;;;;;;4985322;28;20076;-64
2021/03/18 08:19:02;;;;;;;6.53;3.42;;;17.20;49.80;;;;;;4986118;28;20118;-64
2021/03/18 08:21:36;;;;;;;5.72;3.63;;;17.30;49.80;;;;;;4983167;28;20042;-63
2021/03/18 08:24:06;;;;;;;4.78;3.50;;;17.30;49.90;;;;;;4986132;28;20054;-63
2021/03/18 08:26:45;;;;;;;5.75;3.90;;;17.30;49.90;;;;;;4985784;28;20046;-63
2021/03/18 08:29:21;;;;;;;7.78;4.07;;;17.20;49.90;;;;;;4979907;28;20038;-64
2021/03/18 08:31:47;;;;;;;5.13;3.58;;;17.20;50.00;;;;;;4992259;28;20043;-64
2021/03/18 08:34:13;;;;;;;4.43;3.55;;;17.30;49.90;;;;;;4985106;28;20039;-64
2021/03/18 08:36:51;;;;;;;5.30;3.90;;;17.30;49.90;;;;;;4985942;28;20332;-63
2021/03/18 08:39:45;;;;;;;5.88;3.63;;;17.30;49.90;;;;;;4986046;28;20453;-64
2021/03/18 08:42:33;;;;;;;4.13;3.08;;;17.30;49.80;;;;;;4979515;28;20138;-65
2021/03/18 08:45:00;;;;;;;5.35;3.65;;;17.40;49.70;;;;;;4979162;28;20170;-62
2021/03/18 08:47:38;;;;;;;5.10;3.90;;;17.40;49.50;;;;;;4986066;28;20042;-64
2021/03/18 08:50:06;;;;;;;5.90;3.85;;;17.40;49.50;;;;;;4986521;28;20708;-64
2021/03/18 08:52:42;;;;;;;6.18;3.63;;;17.40;49.50;;;;;;4985106;28;20041;-64
2021/03/18 08:55:12;;;;;;;4.75;3.75;;;17.40;49.50;;;;;;4978661;28;20061;-64
2021/03/18 08:57:38;;;;;;;4.45;3.70;;;17.40;49.60;;;;;;4985705;28;20035;-61
2021/03/18 09:00:08;;;;;;;5.18;4.03;;;17.40;49.60;;;;;;4985273;28;20057;-63
2021/03/18 09:02:35;;;;;;;3.65;3.30;;;17.40;49.70;;;;;;4999924;28;20097;-63
2021/03/18 09:05:15;;;;;;;4.50;3.63;;;17.40;49.60;;;;;;4985507;28;20026;-62
2021/03/18 09:07:40;;;;;;;4.35;3.63;;;17.40;49.50;;;;;;4984612;28;20058;-60
2021/03/18 09:10:15;;;;;;;5.65;4.43;;;17.40;49.60;;;;;;5001039;28;20568;-63
2021/03/18 09:12:53;;;;;;;5.93;3.90;;;17.40;49.40;;;;;;4984176;28;20108;-63
2021/03/18 09:15:24;;;;;;;6.72;3.92;;;17.40;49.30;;;;;;4984546;28;20533;-61
2021/03/18 09:17:53;;;;;;;7.32;4.40;;;17.50;49.20;;;;;;4983964;28;20035;-59
2021/03/18 09:20:22;;;;;;;4.90;4.40;;;17.50;49.10;;;;;;4983591;28;20149;-62
2021/03/18 09:22:47;;;;;;;5.97;4.20;;;17.50;49.00;;;;;;4984503;28;20045;-63
2021/03/18 09:25:13;;;;;;;5.25;4.55;;;17.50;48.90;;;;;;4967361;28;20145;-60
2021/03/18 09:27:43;;;;;;;4.57;3.85;;;17.50;48.90;;;;;;4984612;28;20084;-59
2021/03/18 09:30:22;;;;;;;5.13;4.55;;;17.60;49.60;;;;;;4999200;28;20516;-60
2021/03/18 09:32:48;;;;;;;6.05;4.70;;;17.60;48.90;;;;;;4985113;28;20038;-63
2021/03/18 09:35:14;;;;;;;5.15;4.30;;;17.60;48.90;;;;;;4982879;28;20030;-58
2021/03/18 09:37:39;;;;;;;5.35;4.55;;;17.60;49.00;;;;;;4983984;28;20070;-62
2021/03/18 09:40:06;;;;;;;5.75;4.50;;;17.60;49.10;;;;;;4984950;28;20034;-63
2021/03/18 09:42:32;;;;;;;5.00;4.13;;;17.60;49.30;;;;;;4982613;28;20412;-62
2021/03/18 09:44:57;;;;;;;5.25;4.13;;;17.60;49.10;;;;;;4975812;28;20038;-63
2021/03/18 09:47:23;;;;;;;6.07;4.50;;;17.60;49.40;;;;;;4984095;28;20379;-63
2021/03/18 09:49:50;;;;;;;5.90;4.63;;;17.60;49.50;;;;;;4984442;28;20034;-61
2021/03/18 09:52:18;;;;;;;7.07;4.63;;;17.60;49.40;;;;;;4983156;28;20022;-61
2021/03/18 09:54:44;;;;;;;6.00;4.32;;;17.60;49.20;;;;;;4999157;28;20129;-61
2021/03/18 09:57:10;;;;;;;4.88;4.40;;;17.60;49.30;;;;;;4984330;28;20031;-64
2021/03/18 09:59:36;;;;;;;5.50;4.45;;;17.60;49.20;;;;;;4985007;28;20035;-63
2021/03/18 10:02:02;;;;;;;4.85;4.40;;;17.60;49.20;;;;;;4976414;28;20096;-62
2021/03/18 10:04:28;;;;;;;6.45;4.07;;;17.50;50.00;;;;;;4984078;28;22239;-63
2021/03/18 10:06:57;;;;;;;6.78;4.55;;;17.40;50.50;;;;;;4982543;28;20041;-64
2021/03/18 10:09:31;;;;;;;4.38;3.80;;;17.30;50.60;;;;;;4985055;28;20041;-63
2021/03/18 10:11:56;;;;;;;6.78;4.10;;;17.30;50.80;;;;;;4984585;28;20417;-62
2021/03/18 10:14:28;;;;;;;5.18;4.32;;;17.30;50.80;;;;;;4984629;28;20030;-61
2021/03/18 10:16:54;;;;;;;4.88;4.38;;;17.30;50.90;;;;;;4983785;28;20046;-62
2021/03/18 10:19:23;;;;;;;4.70;4.20;;;17.30;51.00;;;;;;4982991;28;20779;-63
2021/03/18 10:21:48;;;;;;;6.22;4.60;;;17.30;51.10;;;;;;4966949;28;20047;-62
2021/03/18 10:24:14;;;;;;;5.82;4.30;;;17.30;51.10;;;;;;4967466;28;20113;-62
2021/03/18 10:26:40;;;;;;;4.80;4.30;;;17.40;51.20;;;;;;4987515;28;20057;-63
2021/03/18 10:29:06;;;;;;;4.15;3.70;;;17.40;51.30;;;;;;4987440;28;20440;-65
2021/03/18 10:31:32;;;;;;;5.15;4.32;;;17.30;51.60;;;;;;4988076;28;20034;-59
2021/03/18 10:33:58;;;;;;;5.13;3.83;;;17.30;51.70;;;;;;4988379;28;21458;-64
2021/03/18 10:36:37;;;;;;;4.55;4.15;;;17.30;51.90;;;;;;4987605;28;20034;-65
2021/03/18 10:39:07;;;;;;;5.07;4.57;;;17.40;51.70;;;;;;4981052;28;20934;-60
2021/03/18 10:41:32;;;;;;;5.35;4.32;;;17.40;51.90;;;;;;4986488;28;20078;-60
2021/03/18 10:43:58;;;;;;;5.07;4.57;;;17.40;52.00;;;;;;4986899;28;20042;-62
2021/03/18 10:46:33;;;;;;;5.53;4.30;;;17.40;51.90;;;;;;4986873;28;20434;-64
2021/03/18 10:48:58;;;;;;;6.22;4.35;;;17.40;52.00;;;;;;4988068;28;20039;-62
2021/03/18 10:51:24;;;;;;;5.95;4.32;;;17.40;51.90;;;;;;4988178;28;20492;-64
2021/03/18 10:53:50;;;;;;;5.78;4.82;;;17.40;51.80;;;;;;4982506;28;20039;-64
2021/03/18 10:56:27;;;;;;;5.35;4.32;;;17.40;51.80;;;;;;4967597;28;20089;-63
2021/03/18 10:58:53;;;;;;;6.50;4.70;;;17.50;51.70;;;;;;4969555;28;20316;-63
2021/03/18 11:01:26;;;;;;;5.07;4.57;;;17.50;51.70;;;;;;4973786;28;20126;-64
2021/03/18 11:04:00;;;;;;;4.78;4.25;;;17.50;51.50;;;;;;4975174;28;20048;-62
2021/03/18 11:06:25;;;;;;;4.47;3.95;;;17.50;51.30;;;;;;4974157;28;20125;-62
2021/03/18 11:08:54;;;;;;;5.80;4.68;;;17.60;51.30;;;;;;4975403;28;20151;-62
2021/03/18 11:11:22;;;;;;;4.95;4.32;;;17.50;51.20;;;;;;4976081;28;20062;-62
2021/03/18 11:13:48;;;;;;;5.18;4.22;;;17.50;51.10;;;;;;4985589;28;20046;-59
2021/03/18 11:16:23;;;;;;;5.45;4.18;;;17.50;51.10;;;;;;4987673;28;20118;-63
2021/03/18 11:18:49;;;;;;;5.43;4.78;;;17.60;51.00;;;;;;4986802;28;20144;-63
2021/03/18 11:21:25;;;;;;;6.95;4.03;;;17.60;51.00;;;;;;4986830;28;20042;-65
2021/03/18 11:23:55;;;;;;;5.28;4.57;;;17.50;50.90;;;;;;4987025;28;20058;-65
2021/03/18 11:26:22;;;;;;;5.78;4.75;;;17.50;50.70;;;;;;4987746;28;20030;-65
2021/03/18 11:28:56;;;;;;;4.85;4.07;;;17.50;50.80;;;;;;4986976;28;20057;-63
2021/03/18 11:31:22;;;;;;;4.88;4.47;;;17.50;50.90;;;;;;4987709;28;20118;-65
2021/03/18 11:33:47;;;;;;;4.65;4.25;;;17.50;50.80;;;;;;4986766;28;20038;-64
2021/03/18 11:36:13;;;;;;;4.85;4.43;;;17.50;50.30;;;;;;4984619;28;20064;-62
2021/03/18 11:38:38;;;;;;;5.03;4.45;;;17.50;50.60;;;;;;4987401;28;20042;-60
2021/03/18 11:41:04;;;;;;;4.78;4.13;;;17.50;50.30;;;;;;4986258;28;20045;-64
2021/03/18 11:43:29;;;;;;;6.57;4.65;;;17.50;50.20;;;;;;4986726;28;20537;-63
2021/03/18 11:45:55;;;;;;;5.07;4.57;;;17.50;50.10;;;;;;4987270;28;20038;-61
2021/03/18 11:48:21;;;;;;;4.43;4.03;;;17.60;50.10;;;;;;4986748;28;20519;-60
2021/03/18 11:50:46;;;;;;;4.55;4.10;;;17.60;50.00;;;;;;4986566;28;20062;-64
2021/03/18 11:53:12;;;;;;;4.88;4.38;;;17.60;49.70;;;;;;4985247;28;20031;-63
2021/03/18 11:55:38;;;;;;;6.55;4.30;;;17.60;49.80;;;;;;4987161;28;20778;-64
2021/03/18 11:58:04;;;;;;;4.47;4.00;;;17.60;49.60;;;;;;4985028;28;20042;-64
2021/03/18 12:00:31;;;;;;;4.43;4.03;;;17.70;49.50;;;;;;4986864;28;20042;-63
2021/03/18 12:02:57;;;;;;;4.55;4.15;;;17.70;49.50;;;;;;4986144;28;20806;-63
2021/03/18 12:05:23;;;;;;;4.25;3.85;;;17.70;49.40;;;;;;5001774;28;20042;-63
2021/03/18 12:07:48;;;;;;;4.72;4.00;;;17.70;49.30;;;;;;4986758;28;20038;-62
2021/03/18 12:10:14;;;;;;;4.63;4.10;;;17.70;49.30;;;;;;4986447;28;20034;-63
2021/03/18 12:12:40;;;;;;;3.97;3.58;;;17.70;49.20;;;;;;4994743;28;20026;-61
2021/03/18 12:15:06;;;;;;;4.15;3.70;;;17.70;49.90;;;;;;4986184;28;20026;-64
2021/03/18 12:17:32;;;;;;;4.47;4.07;;;17.80;49.20;;;;;;4979917;28;20117;-62
2021/03/18 12:19:58;;;;;;;3.75;3.45;;;17.80;49.20;;;;;;4972047;28;20069;-60
2021/03/18 12:22:23;;;;;;;4.10;3.70;;;17.80;49.20;;;;;;4978480;28;20113;-64
2021/03/18 12:24:49;;;;;;;5.70;3.88;;;17.80;49.20;;;;;;4978190;28;20034;-64
2021/03/18 12:27:14;;;;;;;4.72;3.92;;;17.80;49.20;;;;;;4977884;28;20034;-62
2021/03/18 12:29:40;;;;;;;3.40;3.10;;;17.80;49.10;;;;;;4967652;28;20085;-62
2021/03/18 12:32:05;;;;;;;6.53;3.88;;;17.80;49.00;;;;;;4971860;28;20323;-61
2021/03/18 12:34:31;;;;;;;4.97;4.10;;;17.90;49.30;;;;;;4973637;28;20493;-60
2021/03/18 12:36:57;;;;;;;3.47;3.17;;;17.80;49.40;;;;;;4985968;28;20449;-61
2021/03/18 12:39:22;;;;;;;5.22;3.55;;;17.80;49.80;;;;;;4984569;28;20034;-61
2021/03/18 12:41:48;;;;;;;3.42;3.13;;;17.70;50.90;;;;;;4985307;28;20125;-63
2021/03/18 12:44:13;;;;;;;6.10;3.60;;;17.60;50.70;;;;;;4985897;28;20045;-61
2021/03/18 12:46:39;;;;;;;4.18;3.55;;;17.50;51.00;;;;;;4985546;28;20513;-62
2021/03/18 12:49:05;;;;;;;3.33;3.03;;;17.60;51.10;;;;;;4986417;28;20724;-64
2021/03/18 12:51:30;;;;;;;4.15;3.47;;;17.50;51.30;;;;;;4985160;28;20038;-64
2021/03/18 12:53:56;;;;;;;4.70;4.10;;;17.50;51.40;;;;;;4985127;28;20038;-58